createdAt,value
2023-02-01T00:01:10.490Z,98510.19
2023-02-01T00:03:37.513Z,98511.03
2023-02-01T00:06:04.570Z,98516.25
2023-02-01T00:08:31.254Z,98511.91
2023-02-01T00:11:03.436Z,98519.63
2023-02-01T00:13:32.222Z,98515.34
2023-02-01T00:16:23.638Z,98516.19
2023-02-01T00:18:52.513Z,98523.13
2023-02-01T00:21:21.386Z,98530.97
2023-02-01T00:23:48.176Z,98521.41
2023-02-01T00:26:23.333Z,98530.09
2023-02-01T00:28:49.891Z,98519.75
2023-02-01T00:31:16.589Z,98524.94
2023-02-01T00:33:43.209Z,98528.44
2023-02-01T00:36:10.731Z,98527.63
2023-02-01T00:38:39.078Z,98524.19
2023-02-01T00:41:18.497Z,98527.66
2023-02-01T00:43:46.284Z,98533.72
2023-02-01T00:46:14.807Z,98517.22
2023-02-01T00:48:42.174Z,98519.81
2023-02-01T00:51:12.522Z,98525.88
2023-02-01T00:53:39.311Z,98517.19
2023-02-01T00:56:07.089Z,98519.81
2023-02-01T00:58:34.069Z,98526.78
2023-02-01T01:01:11.031Z,98520.72
2023-02-01T01:03:40.644Z,98521.63
2023-02-01T01:06:16.018Z,98520.78
2023-02-01T01:08:43.702Z,98497.38
2023-02-01T01:11:13.424Z,98513.84
2023-02-01T01:13:40.613Z,98498.25
2023-02-01T01:16:08.597Z,98483.50
2023-02-01T01:18:35.921Z,98493.00
2023-02-01T01:21:04.689Z,98498.25
2023-02-01T01:23:31.369Z,98492.19
2023-02-01T01:25:58.109Z,98487.88
2023-02-01T01:28:24.645Z,98493.91
2023-02-01T01:30:51.150Z,98492.16
2023-02-01T01:33:17.612Z,98496.53
2023-02-01T01:35:44.132Z,98487.88
2023-02-01T01:38:12.534Z,98487.00
2023-02-01T01:40:39.621Z,98493.06
2023-02-01T01:43:17.684Z,98493.94
2023-02-01T01:45:44.736Z,98502.63
2023-02-01T01:48:20.339Z,98495.69
2023-02-01T01:50:56.024Z,98486.13
2023-02-01T01:53:26.899Z,98487.00
2023-02-01T01:55:55.541Z,98490.50
2023-02-01T01:58:26.529Z,98481.84
2023-02-01T02:00:55.112Z,98474.03
2023-02-01T02:03:26.695Z,98480.06
2023-02-01T02:05:56.423Z,98461.88
2023-02-01T02:08:25.207Z,98466.19
2023-02-01T02:11:01.568Z,98459.25
2023-02-01T02:13:35.443Z,98469.63
2023-02-01T02:16:18.703Z,98465.31
2023-02-01T02:18:57.421Z,98454.03
2023-02-01T02:21:42.677Z,98449.69
2023-02-01T02:24:23.488Z,98460.97
2023-02-01T02:26:57.563Z,98451.41
2023-02-01T02:29:49.275Z,98453.16
2023-02-01T02:32:52.883Z,98450.53
2023-02-01T02:35:30.563Z,98458.34
2023-02-01T02:38:22.940Z,98446.22
2023-02-01T02:40:55.758Z,98449.69
2023-02-01T02:43:45.055Z,98457.47
2023-02-01T02:46:53.347Z,98446.19
2023-02-01T02:49:22.660Z,98441.81
2023-02-01T02:52:12.523Z,98446.13
2023-02-01T02:54:47.429Z,98453.91
2023-02-01T02:57:38.473Z,98447.81
2023-02-01T03:00:28.584Z,98452.16
2023-02-01T03:03:14.387Z,98431.44
2023-02-01T03:05:45.205Z,98434.00
2023-02-01T03:08:15.093Z,98420.16
2023-02-01T03:11:08.988Z,98431.41
2023-02-01T03:13:54.112Z,98416.69
2023-02-01T03:16:34.079Z,98430.53
2023-02-01T03:19:06.537Z,98430.56
2023-02-01T03:21:39.276Z,98440.13
2023-02-01T03:24:13.328Z,98424.53
2023-02-01T03:26:46.071Z,98431.47
2023-02-01T03:29:22.874Z,98421.94
2023-02-01T03:31:50.010Z,98427.16
2023-02-01T03:34:17.517Z,98410.69
2023-02-01T03:36:58.944Z,98405.50
2023-02-01T03:39:31.362Z,98404.63
2023-02-01T03:42:01.542Z,98388.16
2023-02-01T03:44:33.379Z,98389.00
2023-02-01T03:47:05.998Z,98387.28
2023-02-01T03:49:39.969Z,98395.06
2023-02-01T03:52:10.107Z,98391.56
2023-02-01T03:54:38.953Z,98394.16
2023-02-01T03:57:10.921Z,98395.03
2023-02-01T03:59:45.493Z,98396.78
2023-02-01T04:02:12.823Z,98397.66
2023-02-01T04:04:39.478Z,98398.50
2023-02-01T04:07:06.147Z,98390.69
2023-02-01T04:09:32.800Z,98396.78
2023-02-01T04:11:59.383Z,98401.97
2023-02-01T04:14:26.115Z,98397.63
2023-02-01T04:16:52.737Z,98398.50
2023-02-01T04:19:19.301Z,98395.91
2023-02-01T04:21:46.275Z,98396.72
2023-02-01T04:24:12.971Z,98387.22
2023-02-01T04:26:39.652Z,98388.06
2023-02-01T04:29:06.270Z,98377.66
2023-02-01T04:31:33.218Z,98377.63
2023-02-01T04:34:00.065Z,98366.34
2023-02-01T04:36:26.797Z,98353.41
2023-02-01T04:38:53.798Z,98352.50
2023-02-01T04:41:21.449Z,98351.63
2023-02-01T04:43:49.005Z,98355.97
2023-02-01T04:46:16.015Z,98347.34
2023-02-01T04:48:43.310Z,98340.38
2023-02-01T04:51:11.202Z,98339.53
2023-02-01T04:53:38.069Z,98335.19
2023-02-01T04:56:05.482Z,98330.91
2023-02-01T04:58:32.079Z,98322.28
2023-02-01T05:00:58.746Z,98317.06
2023-02-01T05:03:25.384Z,98300.63
2023-02-01T05:05:54.771Z,98301.50
2023-02-01T05:08:23.620Z,98295.41
2023-02-01T05:10:50.297Z,98293.69
2023-02-01T05:13:35.716Z,98278.13
2023-02-01T05:16:02.840Z,98283.31
2023-02-01T05:18:29.611Z,98290.22
2023-02-01T05:20:56.376Z,98295.44
2023-02-01T05:23:22.977Z,98288.50
2023-02-01T05:25:49.654Z,98278.09
2023-02-01T05:28:16.244Z,98285.03
2023-02-01T05:30:42.843Z,98292.84
2023-02-01T05:33:09.800Z,98295.44
2023-02-01T05:35:36.440Z,98277.25
2023-02-01T05:38:03.014Z,98288.53
2023-02-01T05:40:29.766Z,98286.78
2023-02-01T05:42:56.494Z,98291.13
2023-02-01T05:45:23.215Z,98289.38
2023-02-01T05:47:49.930Z,98281.56
2023-02-01T05:50:17.776Z,98280.69
2023-02-01T05:52:44.559Z,98276.34
2023-02-01T05:55:11.154Z,98263.38
2023-02-01T05:57:37.825Z,98275.50
2023-02-01T06:00:05.716Z,98266.00
2023-02-01T06:02:32.272Z,98273.75
2023-02-01T06:04:58.879Z,98277.22
2023-02-01T06:07:26.090Z,98265.97
2023-02-01T06:09:53.739Z,98271.13
2023-02-01T06:12:20.433Z,98268.56
2023-02-01T06:14:47.013Z,98273.75
2023-02-01T06:17:13.611Z,98272.03
2023-02-01T06:19:41.734Z,98266.81
2023-02-01T06:22:08.281Z,98259.03
2023-02-01T06:24:35.006Z,98264.22
2023-02-01T06:27:01.675Z,98252.94
2023-02-01T06:29:28.348Z,98256.41
2023-02-01T06:31:55.029Z,98261.63
2023-02-01T06:34:23.486Z,98248.59
2023-02-01T06:36:50.231Z,98252.06
2023-02-01T06:39:17.332Z,98240.78
2023-02-01T06:41:47.624Z,98239.91
2023-02-01T06:44:14.395Z,98233.88
2023-02-01T06:46:41.287Z,98247.72
2023-02-01T06:49:08.867Z,98239.94
2023-02-01T06:51:35.799Z,98250.31
2023-02-01T06:54:02.693Z,98244.28
2023-02-01T06:56:29.398Z,98245.16
2023-02-01T06:58:56.170Z,98242.59
2023-02-01T07:01:22.760Z,98248.63
2023-02-01T07:03:52.585Z,98247.78
2023-02-01T07:06:19.531Z,98258.16
2023-02-01T07:08:46.567Z,98245.13
2023-02-01T07:11:15.338Z,98247.72
2023-02-01T07:13:41.867Z,98244.25
2023-02-01T07:16:12.886Z,98246.84
2023-02-01T07:18:39.889Z,98256.38
2023-02-01T07:21:06.823Z,98247.72
2023-02-01T07:23:33.786Z,98260.75
2023-02-01T07:26:03.177Z,98255.53
2023-02-01T07:28:32.122Z,98247.75
2023-02-01T07:31:11.685Z,98251.19
2023-02-01T07:33:38.742Z,98259.84
2023-02-01T07:36:07.818Z,98264.16
2023-02-01T07:38:35.310Z,98255.50
2023-02-01T07:41:03.882Z,98259.00
2023-02-01T07:43:30.656Z,98252.88
2023-02-01T07:45:58.186Z,98247.69
2023-02-01T07:48:26.402Z,98239.00
2023-02-01T07:51:16.465Z,98239.00
2023-02-01T07:53:44.338Z,98225.09
2023-02-01T07:56:17.246Z,98235.50
2023-02-01T07:58:44.200Z,98236.38
2023-02-01T08:01:22.010Z,98238.97
2023-02-01T08:03:50.341Z,98229.44
2023-02-01T08:06:17.227Z,98230.31
2023-02-01T08:08:46.484Z,98238.97
2023-02-01T08:11:13.810Z,98245.88
2023-02-01T08:13:41.161Z,98251.09
2023-02-01T08:16:09.683Z,98255.41
2023-02-01T08:18:37.822Z,98271.91
2023-02-01T08:21:06.772Z,98265.84
2023-02-01T08:23:34.751Z,98278.84
2023-02-01T08:26:14.571Z,98276.28
2023-02-01T08:28:44.469Z,98286.72
2023-02-01T08:31:15.918Z,98292.78
2023-02-01T08:33:44.442Z,98304.94
2023-02-01T08:36:12.217Z,98307.53
2023-02-01T08:38:40.559Z,98292.78
2023-02-01T08:41:18.756Z,98315.34
2023-02-01T08:43:45.638Z,98298.88
2023-02-01T08:46:13.153Z,98295.38
2023-02-01T08:48:39.992Z,98296.25
2023-02-01T08:51:10.239Z,98291.91
2023-02-01T08:53:37.803Z,98290.16
2023-02-01T08:56:05.291Z,98305.75
2023-02-01T08:58:32.010Z,98306.59
2023-02-01T09:00:58.716Z,98301.44
2023-02-01T09:03:25.496Z,98299.66
2023-02-01T09:05:54.268Z,98303.03
2023-02-01T09:08:21.578Z,98310.88
2023-02-01T09:10:48.324Z,98315.19
2023-02-01T09:13:14.921Z,98299.59
2023-02-01T09:15:41.631Z,98303.94
2023-02-01T09:18:08.328Z,98292.72
2023-02-01T09:20:34.894Z,98304.81
2023-02-01T09:23:01.533Z,98285.69
2023-02-01T09:25:29.437Z,98305.72
2023-02-01T09:27:56.245Z,98316.16
2023-02-01T09:30:23.260Z,98319.66
2023-02-01T09:32:50.290Z,98316.16
2023-02-01T09:35:17.051Z,98320.47
2023-02-01T09:37:43.606Z,98336.06
2023-02-01T09:40:16.279Z,98330.72
2023-02-01T09:43:22.358Z,98334.03
2023-02-01T09:46:07.760Z,98338.31
2023-02-01T09:48:38.679Z,98319.06
2023-02-01T09:51:14.076Z,98325.97
2023-02-01T09:53:44.310Z,98311.38
2023-02-01T09:56:19.488Z,98329.81
2023-02-01T09:58:48.738Z,98313.13
2023-02-01T10:01:23.547Z,98314.78
2023-02-01T10:04:56.319Z,98319.22
2023-02-01T10:07:52.583Z,98324.50
2023-02-01T10:10:42.106Z,98326.84
2023-02-01T10:13:19.267Z,98333.69
2023-02-01T10:16:04.228Z,98322.94
2023-02-01T10:19:09.672Z,98313.44
2023-02-01T10:21:51.755Z,98316.69
2023-02-01T10:24:18.546Z,98317.47
2023-02-01T10:27:02.849Z,98313.03
2023-02-01T10:29:38.217Z,98319.75
2023-02-01T10:32:12.925Z,98325.59
2023-02-01T10:34:40.883Z,98324.88
2023-02-01T10:37:30.760Z,98331.75
2023-02-01T10:40:01.309Z,98319.53
2023-02-01T10:42:30.114Z,98315.81
2023-02-01T10:45:03.159Z,98314.06
2023-02-01T10:47:29.857Z,98326.09
2023-02-01T10:50:16.823Z,98328.63
2023-02-01T10:52:53.949Z,98300.19
2023-02-01T10:55:29.379Z,98315.69
2023-02-01T10:58:01.956Z,98304.34
2023-02-01T11:00:34.918Z,98312.03
2023-02-01T11:03:01.558Z,98301.28
2023-02-01T11:05:28.337Z,98288.88
2023-02-01T11:07:56.272Z,98293.38
2023-02-01T11:10:42.503Z,98295.22
2023-02-01T11:13:18.197Z,98285.97
2023-02-01T11:15:49.151Z,98296.06
2023-02-01T11:18:29.125Z,98290.00
2023-02-01T11:20:56.775Z,98291.09
2023-02-01T11:23:26.690Z,98295.63
2023-02-01T11:26:01.925Z,98296.63
2023-02-01T11:28:33.479Z,98305.41
2023-02-01T11:31:08.657Z,98302.75
2023-02-01T11:33:38.881Z,98297.56
2023-02-01T11:36:13.124Z,98296.69
2023-02-01T11:38:39.554Z,98302.78
2023-02-01T11:41:41.389Z,98296.84
2023-02-01T11:44:21.595Z,98299.56
2023-02-01T11:46:48.207Z,98280.47
2023-02-01T11:49:28.203Z,98270.91
2023-02-01T11:52:24.736Z,98286.41
2023-02-01T11:55:28.962Z,98287.09
2023-02-01T11:58:04.485Z,98278.50
2023-02-01T12:00:46.381Z,98276.91
2023-02-01T12:03:42.962Z,98278.72
2023-02-01T12:06:32.113Z,98276.19
2023-02-01T12:09:24.704Z,98274.38
2023-02-01T12:12:03.356Z,98272.72
2023-02-01T12:14:57.661Z,98276.13
2023-02-01T12:17:30.436Z,98266.56
2023-02-01T12:19:57.034Z,98265.72
2023-02-01T12:23:00.750Z,98263.94
2023-02-01T12:25:48.159Z,98270.84
2023-02-01T12:28:26.710Z,98268.03
2023-02-01T12:31:06.261Z,98263.75
2023-02-01T12:33:55.467Z,98259.56
2023-02-01T12:36:44.186Z,98265.75
2023-02-01T12:39:32.744Z,98264.09
2023-02-01T12:42:22.002Z,98258.03
2023-02-01T12:45:00.872Z,98260.72
2023-02-01T12:47:34.171Z,98237.25
2023-02-01T12:50:03.631Z,98248.56
2023-02-01T12:52:39.082Z,98232.88
2023-02-01T12:55:24.738Z,98247.66
2023-02-01T12:58:05.741Z,98227.72
2023-02-01T13:00:47.073Z,98224.28
2023-02-01T13:03:27.286Z,98217.34
2023-02-01T13:06:03.793Z,98215.53
2023-02-01T13:08:42.144Z,98218.09
2023-02-01T13:11:29.306Z,98204.25
2023-02-01T13:14:07.914Z,98185.94
2023-02-01T13:16:44.213Z,98182.50
2023-02-01T13:19:20.107Z,98172.91
2023-02-01T13:21:57.895Z,98166.84
2023-02-01T13:24:32.742Z,98165.94
2023-02-01T13:26:59.479Z,98155.50
2023-02-01T13:29:28.060Z,98161.63
2023-02-01T13:32:06.284Z,98154.66
2023-02-01T13:34:55.246Z,98145.97
2023-02-01T13:37:47.462Z,98138.16
2023-02-01T13:40:38.342Z,98144.19
2023-02-01T13:43:15.178Z,98133.00
2023-02-01T13:45:48.914Z,98135.59
2023-02-01T13:48:22.991Z,98131.22
2023-02-01T13:50:56.085Z,98132.03
2023-02-01T13:53:35.096Z,98124.22
2023-02-01T13:56:07.281Z,98131.16
2023-02-01T13:58:42.632Z,98126.81
2023-02-01T14:01:24.600Z,98141.50
2023-02-01T14:03:55.396Z,98139.69
2023-02-01T14:06:28.677Z,98117.09
2023-02-01T14:09:15.030Z,98130.19
2023-02-01T14:11:52.549Z,98126.84
2023-02-01T14:14:19.126Z,98108.56
2023-02-01T14:17:10.892Z,98098.63
2023-02-01T14:19:38.699Z,98101.09
2023-02-01T14:22:27.145Z,98088.09
2023-02-01T14:24:58.889Z,98094.41
2023-02-01T14:27:31.948Z,98100.63
2023-02-01T14:30:01.672Z,98085.84
2023-02-01T14:32:48.464Z,98072.97
2023-02-01T14:35:35.375Z,98040.06
2023-02-01T14:38:08.046Z,98078.34
2023-02-01T14:40:36.957Z,98075.72
2023-02-01T14:43:03.815Z,98088.78
2023-02-01T14:45:30.561Z,98081.75
2023-02-01T14:48:05.985Z,98088.81
2023-02-01T14:50:38.710Z,98092.38
2023-02-01T14:53:11.654Z,98093.16
2023-02-01T14:55:46.676Z,98087.16
2023-02-01T14:58:37.490Z,98096.78
2023-02-01T15:01:16.078Z,98102.88
2023-02-01T15:03:49.793Z,98104.66
2023-02-01T15:06:31.536Z,98088.97
2023-02-01T15:09:08.607Z,98095.03
2023-02-01T15:12:06.429Z,98096.72
2023-02-01T15:14:39.126Z,98105.38
2023-02-01T15:17:22.960Z,98091.59
2023-02-01T15:20:00.999Z,98093.22
2023-02-01T15:22:29.674Z,98095.91
2023-02-01T15:25:00.876Z,98085.59
2023-02-01T15:27:32.369Z,98085.63
2023-02-01T15:30:16.819Z,98091.72
2023-02-01T15:32:43.290Z,98074.41
2023-02-01T15:35:38.753Z,98079.59
2023-02-01T15:38:24.648Z,98069.25
2023-02-01T15:41:01.504Z,98061.34
2023-02-01T15:43:31.255Z,98082.19
2023-02-01T15:46:00.362Z,98083.91
2023-02-01T15:48:31.018Z,98090.00
2023-02-01T15:50:57.679Z,98086.59
2023-02-01T15:53:26.324Z,98087.38
2023-02-01T15:55:56.123Z,98109.97
2023-02-01T15:58:24.863Z,98103.03
2023-02-01T16:00:55.057Z,98096.06
2023-02-01T16:03:38.895Z,98110.00
2023-02-01T16:06:27.252Z,98105.63
2023-02-01T16:09:01.356Z,98087.38
2023-02-01T16:11:33.474Z,98079.56
2023-02-01T16:14:01.592Z,98094.28
2023-02-01T16:16:30.275Z,98098.69
2023-02-01T16:18:56.966Z,98109.88
2023-02-01T16:21:24.146Z,98111.69
2023-02-01T16:23:52.262Z,98115.13
2023-02-01T16:26:19.789Z,98109.00
2023-02-01T16:28:46.876Z,98125.50
2023-02-01T16:31:22.057Z,98140.22
2023-02-01T16:33:52.771Z,98141.16
2023-02-01T16:36:20.061Z,98140.31
2023-02-01T16:38:50.715Z,98147.31
2023-02-01T16:41:20.826Z,98146.44
2023-02-01T16:43:51.229Z,98145.59
2023-02-01T16:46:22.690Z,98142.13
2023-02-01T16:48:54.847Z,98156.88
2023-02-01T16:51:22.064Z,98176.00
2023-02-01T16:53:54.690Z,98187.34
2023-02-01T16:56:24.725Z,98195.16
2023-02-01T16:58:51.938Z,98220.38
2023-02-01T17:01:20.321Z,98201.81
2023-02-01T17:03:47.854Z,98225.22
2023-02-01T17:06:18.043Z,98229.44
2023-02-01T17:08:48.823Z,98257.91
2023-02-01T17:11:15.549Z,98240.44
2023-02-01T17:13:43.187Z,98283.50
2023-02-01T17:16:21.907Z,98303.94
2023-02-01T17:18:56.305Z,98330.50
2023-02-01T17:21:23.399Z,98332.03
2023-02-01T17:23:50.132Z,98286.31
2023-02-01T17:26:16.656Z,98278.56
2023-02-01T17:28:43.222Z,98278.84
2023-02-01T17:31:16.017Z,98262.63
2023-02-01T17:33:44.983Z,98255.84
2023-02-01T17:36:15.232Z,98240.34
2023-02-01T17:38:43.220Z,98243.91
2023-02-01T17:41:14.794Z,98249.13
2023-02-01T17:43:41.764Z,98257.78
2023-02-01T17:46:15.622Z,98265.56
2023-02-01T17:48:42.719Z,98282.94
2023-02-01T17:51:29.352Z,98271.75
2023-02-01T17:53:56.212Z,98269.16
2023-02-01T17:56:25.124Z,98256.22
2023-02-01T17:58:52.174Z,98274.34
2023-02-01T18:01:21.868Z,98285.56
2023-02-01T18:03:49.178Z,98285.53
2023-02-01T18:06:18.917Z,98276.81
2023-02-01T18:08:46.266Z,98263.84
2023-02-01T18:11:33.538Z,98261.22
2023-02-01T18:14:00.276Z,98266.38
2023-02-01T18:16:30.161Z,98260.34
2023-02-01T18:19:01.945Z,98279.34
2023-02-01T18:21:33.937Z,98281.84
2023-02-01T18:24:04.644Z,98275.84
2023-02-01T18:26:31.294Z,98263.78
2023-02-01T18:28:57.936Z,98263.78
2023-02-01T18:31:30.549Z,98257.78
2023-02-01T18:33:58.565Z,98271.63
2023-02-01T18:36:26.663Z,98262.97
2023-02-01T18:38:58.135Z,98276.78
2023-02-01T18:41:25.620Z,98276.81
2023-02-01T18:43:53.162Z,98271.66
2023-02-01T18:46:21.927Z,98269.94
2023-02-01T18:48:48.673Z,98270.84
2023-02-01T18:51:20.479Z,98262.19
2023-02-01T18:53:48.625Z,98260.44
2023-02-01T18:56:18.477Z,98277.78
2023-02-01T18:58:45.748Z,98269.97
2023-02-01T19:01:21.280Z,98266.56
2023-02-01T19:03:55.933Z,98270.88
2023-02-01T19:06:26.628Z,98270.00
2023-02-01T19:08:56.028Z,98275.25
2023-02-01T19:11:22.856Z,98276.97
2023-02-01T19:13:51.470Z,98284.78
2023-02-01T19:16:18.246Z,98274.41
2023-02-01T19:18:44.867Z,98271.84
2023-02-01T19:21:13.449Z,98273.59
2023-02-01T19:23:41.193Z,98270.13
2023-02-01T19:26:15.782Z,98272.72
2023-02-01T19:28:47.030Z,98276.22
2023-02-01T19:31:14.111Z,98280.53
2023-02-01T19:33:40.938Z,98278.84
2023-02-01T19:36:09.990Z,98281.44
2023-02-01T19:38:37.026Z,98276.25
2023-02-01T19:41:03.682Z,98280.63
2023-02-01T19:43:30.484Z,98282.34
2023-02-01T19:45:57.658Z,98285.81
2023-02-01T19:48:24.378Z,98298.81
2023-02-01T19:50:51.375Z,98278.88
2023-02-01T19:53:19.431Z,98290.13
2023-02-01T19:55:46.741Z,98273.69
2023-02-01T19:58:13.377Z,98304.88
2023-02-01T20:00:39.229Z,98310.91
2023-02-01T20:03:06.062Z,98307.47
2023-02-01T20:05:32.761Z,98297.91
2023-02-01T20:08:01.286Z,98315.22
2023-02-01T20:10:28.000Z,98303.06
2023-02-01T20:12:55.636Z,98306.44
2023-02-01T20:15:25.070Z,98313.38
2023-02-01T20:17:53.519Z,98322.03
2023-02-01T20:20:20.094Z,98322.91
2023-02-01T20:22:46.707Z,98320.31
2023-02-01T20:25:13.554Z,98318.63
2023-02-01T20:27:41.045Z,98315.16
2023-02-01T20:30:08.635Z,98324.69
2023-02-01T20:32:35.161Z,98311.63
2023-02-01T20:35:01.857Z,98320.22
2023-02-01T20:37:28.625Z,98326.25
2023-02-01T20:39:55.315Z,98318.50
2023-02-01T20:42:22.217Z,98329.72
2023-02-01T20:44:48.827Z,98330.59
2023-02-01T20:47:15.815Z,98319.25
2023-02-01T20:49:42.475Z,98308.88
2023-02-01T20:52:09.172Z,98320.97
2023-02-01T20:54:35.929Z,98321.78
2023-02-01T20:57:02.546Z,98314.88
2023-02-01T20:59:29.093Z,98320.88
2023-02-01T21:01:55.607Z,98318.38
2023-02-01T21:04:27.640Z,98321.84
2023-02-01T21:06:58.065Z,98319.25
2023-02-01T21:09:25.694Z,98314.06
2023-02-01T21:11:53.257Z,98312.28
2023-02-01T21:14:20.733Z,98313.16
2023-02-01T21:16:47.921Z,98314.94
2023-02-01T21:19:14.620Z,98319.25
2023-02-01T21:21:42.370Z,98320.97
2023-02-01T21:24:09.334Z,98330.56
2023-02-01T21:26:42.118Z,98321.94
2023-02-01T21:29:11.981Z,98326.22
2023-02-01T21:31:39.490Z,98328.81
2023-02-01T21:34:07.101Z,98325.41
2023-02-01T21:36:35.645Z,98330.50
2023-02-01T21:39:04.998Z,98334.03
2023-02-01T21:41:53.176Z,98336.63
2023-02-01T21:44:20.174Z,98332.38
2023-02-01T21:46:47.100Z,98338.41
2023-02-01T21:49:14.028Z,98338.41
2023-02-01T21:51:41.341Z,98343.69
2023-02-01T21:54:09.700Z,98338.44
2023-02-01T21:56:37.815Z,98340.19
2023-02-01T21:59:04.875Z,98328.03
2023-02-01T22:01:31.716Z,98328.03
2023-02-01T22:03:58.452Z,98329.78
2023-02-01T22:06:30.825Z,98322.84
2023-02-01T22:08:57.855Z,98326.31
2023-02-01T22:11:25.234Z,98339.28
2023-02-01T22:13:52.016Z,98329.69
2023-02-01T22:16:21.645Z,98331.44
2023-02-01T22:18:50.256Z,98332.34
2023-02-01T22:21:17.363Z,98334.00
2023-02-01T22:23:44.217Z,98334.03
2023-02-01T22:26:13.873Z,98340.94
2023-02-01T22:28:40.666Z,98333.13
2023-02-01T22:31:09.462Z,98338.38
2023-02-01T22:33:36.592Z,98341.00
2023-02-01T22:36:04.638Z,98338.41
2023-02-01T22:38:32.668Z,98335.81
2023-02-01T22:41:01.297Z,98337.50
2023-02-01T22:43:28.669Z,98344.38
2023-02-01T22:45:59.099Z,98346.13
2023-02-01T22:48:25.853Z,98350.38
2023-02-01T22:50:59.498Z,98334.00
2023-02-01T22:53:26.787Z,98339.13
2023-02-01T22:55:53.740Z,98333.09
2023-02-01T22:58:20.673Z,98340.88
2023-02-01T23:00:47.323Z,98357.34
2023-02-01T23:03:13.992Z,98354.75
2023-02-01T23:05:40.574Z,98352.16
2023-02-01T23:08:07.307Z,98361.66
2023-02-01T23:10:33.814Z,98361.66
2023-02-01T23:13:00.316Z,98361.66
2023-02-01T23:15:27.084Z,98350.47
2023-02-01T23:17:53.686Z,98353.16
2023-02-01T23:20:20.802Z,98365.22
2023-02-01T23:22:48.981Z,98362.63
2023-02-01T23:25:18.501Z,98360.88
2023-02-01T23:27:45.181Z,98366.09
2023-02-01T23:30:12.347Z,98361.75
2023-02-01T23:32:38.913Z,98366.91
2023-02-01T23:35:05.993Z,98370.41
2023-02-01T23:37:32.683Z,98383.38
2023-02-01T23:39:59.280Z,98382.47
2023-02-01T23:42:25.907Z,98387.69
2023-02-01T23:44:52.492Z,98383.47
2023-02-01T23:47:19.089Z,98394.75
2023-02-01T23:49:46.851Z,98395.59
2023-02-01T23:52:13.559Z,98401.69
2023-02-01T23:54:40.105Z,98401.69
2023-02-01T23:57:07.087Z,98394.75
2023-02-01T23:59:33.742Z,98382.69
